createdAt,value
2022-10-30T00:02:31.474Z,0
2022-10-30T00:08:51.320Z,0
2022-10-30T00:15:14.353Z,0
2022-10-30T00:21:34.345Z,0
2022-10-30T00:27:57.378Z,0
2022-10-30T00:34:17.431Z,0
2022-10-30T00:40:40.317Z,0
2022-10-30T00:47:00.382Z,0
2022-10-30T00:53:23.376Z,0
2022-10-30T00:59:43.365Z,0
2022-10-30T01:06:06.382Z,0
2022-10-30T01:12:26.382Z,0
2022-10-30T01:18:49.390Z,0
2022-10-30T01:25:09.367Z,0
2022-10-30T01:31:32.382Z,0
2022-10-30T01:37:52.365Z,0
2022-10-30T01:44:15.325Z,0
2022-10-30T01:50:35.387Z,0
2022-10-30T01:56:58.371Z,0
2022-10-30T02:03:18.319Z,0
2022-10-30T02:09:41.487Z,0
2022-10-30T02:16:01.309Z,0
2022-10-30T02:22:24.630Z,0
2022-10-30T02:28:44.435Z,0
2022-10-30T02:35:07.324Z,0
2022-10-30T02:41:27.374Z,0
2022-10-30T02:47:50.459Z,0
2022-10-30T02:54:10.332Z,0
2022-10-30T03:00:33.361Z,0
2022-10-30T03:06:53.360Z,0
2022-10-30T03:13:16.370Z,0
2022-10-30T03:19:36.314Z,0
2022-10-30T03:25:59.415Z,0
2022-10-30T03:32:19.429Z,0
2022-10-30T03:38:42.343Z,0
2022-10-30T04:01:48.131Z,0
2022-10-30T04:08:07.337Z,0
2022-10-30T04:14:30.383Z,0
2022-10-30T04:20:50.361Z,0
2022-10-30T04:27:13.419Z,0
2022-10-30T04:33:33.331Z,0
2022-10-30T04:39:56.337Z,0
2022-10-30T04:46:16.425Z,0
2022-10-30T04:52:39.315Z,0
2022-10-30T04:58:59.378Z,0
2022-10-30T05:05:22.353Z,0
2022-10-30T05:11:42.351Z,0
2022-10-30T05:18:05.384Z,0
2022-10-30T05:24:25.330Z,0
2022-10-30T05:30:48.368Z,0
2022-10-30T05:37:08.437Z,0
2022-10-30T05:43:31.359Z,0
2022-10-30T05:49:51.431Z,1
2022-10-30T05:56:14.381Z,2
2022-10-30T06:02:34.416Z,5
2022-10-30T06:08:57.379Z,14
2022-10-30T06:15:17.375Z,30
2022-10-30T06:21:40.425Z,58
2022-10-30T06:28:00.729Z,104
2022-10-30T06:34:23.427Z,170
2022-10-30T06:40:43.414Z,244
2022-10-30T06:47:06.383Z,293
2022-10-30T06:53:26.450Z,373
2022-10-30T06:59:49.324Z,473
2022-10-30T07:06:09.359Z,594
2022-10-30T07:12:32.420Z,668
2022-10-30T07:18:52.351Z,736
2022-10-30T07:25:15.407Z,768
2022-10-30T07:31:42.534Z,806
2022-10-30T07:37:58.377Z,850
2022-10-30T07:44:18.360Z,909
2022-10-30T07:50:41.384Z,952
2022-10-30T07:57:01.386Z,996
2022-10-30T08:03:24.362Z,1055
2022-10-30T08:09:44.362Z,1140
2022-10-30T08:16:07.376Z,1219
2022-10-30T08:22:27.353Z,1302
2022-10-30T08:28:50.394Z,1370
2022-10-30T08:35:10.485Z,1423
2022-10-30T08:41:33.410Z,1417
2022-10-30T08:47:53.553Z,1484
2022-10-30T08:54:16.339Z,1581
2022-10-30T09:00:36.385Z,1632
2022-10-30T09:17:04.325Z,1917
2022-10-30T09:23:24.340Z,2165
2022-10-30T09:29:47.357Z,2046
2022-10-30T09:36:07.404Z,2438
2022-10-30T09:42:30.364Z,2532
2022-10-30T09:48:50.390Z,2564
2022-10-30T09:55:13.354Z,2551
2022-10-30T10:01:33.426Z,2443
2022-10-30T10:07:56.623Z,2851
2022-10-30T10:14:16.343Z,2788
2022-10-30T10:20:39.366Z,2968
2022-10-30T10:26:59.329Z,3282
2022-10-30T10:39:42.332Z,3440
2022-10-30T10:46:05.340Z,3537
2022-10-30T10:52:25.412Z,3748
2022-10-30T10:58:48.317Z,3684
2022-10-30T11:05:08.307Z,4082
2022-10-30T11:11:31.368Z,4196
2022-10-30T11:17:51.324Z,4374
2022-10-30T11:24:14.376Z,4596
2022-10-30T11:30:34.362Z,4631
2022-10-30T11:36:57.330Z,3771
2022-10-30T11:43:17.363Z,4283
2022-10-30T11:49:40.365Z,3987
2022-10-30T11:56:00.356Z,4578
2022-10-30T12:02:23.460Z,4870
2022-10-30T12:08:43.347Z,4540
2022-10-30T12:15:06.369Z,4710
2022-10-30T12:21:26.322Z,4611
2022-10-30T12:27:49.380Z,4665
2022-10-30T12:34:09.319Z,3725
2022-10-30T12:40:32.325Z,3293
2022-10-30T12:46:52.396Z,2845
2022-10-30T12:53:15.320Z,2725
2022-10-30T12:59:35.362Z,2606
2022-10-30T13:05:58.363Z,2935
2022-10-30T13:12:18.320Z,2496
2022-10-30T13:18:41.360Z,2382
2022-10-30T13:25:03.479Z,1975
2022-10-30T13:31:24.368Z,1916
2022-10-30T13:37:44.340Z,1843
2022-10-30T13:44:07.340Z,1735
2022-10-30T13:50:27.368Z,1878
2022-10-30T13:56:50.333Z,1786
2022-10-30T14:03:10.380Z,1564
2022-10-30T14:09:33.343Z,1420
2022-10-30T14:15:53.321Z,1400
2022-10-30T14:22:16.415Z,1395
2022-10-30T14:28:36.320Z,1310
2022-10-30T14:34:59.342Z,1220
2022-10-30T14:41:19.351Z,1121
2022-10-30T15:05:09.643Z,667
2022-10-30T15:11:31.331Z,542
2022-10-30T15:17:51.360Z,478
2022-10-30T15:24:14.350Z,476
2022-10-30T15:30:34.307Z,489
2022-10-30T15:36:57.375Z,472
2022-10-30T15:43:17.337Z,382
2022-10-30T15:49:40.332Z,284
2022-10-30T15:56:00.410Z,209
2022-10-30T16:02:23.594Z,130
2022-10-30T16:08:43.575Z,67
2022-10-30T16:15:06.341Z,37
2022-10-30T16:21:26.341Z,19
2022-10-30T16:27:49.379Z,8
2022-10-30T16:34:09.326Z,2
2022-10-30T16:40:32.400Z,1
2022-10-30T16:46:52.317Z,0
2022-10-30T16:53:15.338Z,0
2022-10-30T16:59:35.360Z,0
2022-10-30T17:05:58.379Z,0
2022-10-30T17:12:18.372Z,0
2022-10-30T17:18:41.337Z,0
2022-10-30T17:25:01.381Z,0
2022-10-30T17:31:24.362Z,0
2022-10-30T17:37:44.345Z,0
2022-10-30T17:44:07.393Z,0
2022-10-30T17:50:27.328Z,0
2022-10-30T17:56:50.350Z,0
2022-10-30T18:03:10.374Z,0
2022-10-30T18:09:33.308Z,0
2022-10-30T18:15:53.389Z,0
2022-10-30T18:22:16.309Z,0
2022-10-30T18:28:36.310Z,0
2022-10-30T18:34:59.653Z,0
2022-10-30T18:41:19.330Z,0
2022-10-30T18:47:42.420Z,0
2022-10-30T18:54:02.349Z,0
2022-10-30T19:00:25.395Z,0
2022-10-30T19:06:45.322Z,0
2022-10-30T19:13:12.605Z,0
2022-10-30T19:19:28.370Z,0
2022-10-30T19:25:51.322Z,0
2022-10-30T19:32:11.386Z,0
2022-10-30T19:38:34.319Z,0
2022-10-30T19:44:54.368Z,0
2022-10-30T19:51:17.533Z,0
2022-10-30T19:57:37.364Z,0
2022-10-30T20:04:00.372Z,0
2022-10-30T20:10:20.398Z,0
2022-10-30T20:25:36.557Z,0
2022-10-30T20:31:56.333Z,0
2022-10-30T20:38:19.390Z,0
2022-10-30T20:44:39.681Z,0
2022-10-30T20:51:02.397Z,0
2022-10-30T20:57:22.359Z,0
2022-10-30T21:03:45.493Z,0
2022-10-30T21:10:05.393Z,0
2022-10-30T21:16:28.368Z,0
2022-10-30T21:22:48.355Z,0
2022-10-30T21:29:11.398Z,0
2022-10-30T21:35:31.317Z,0
2022-10-30T21:41:54.394Z,0
2022-10-30T21:48:14.316Z,0
2022-10-30T21:54:37.340Z,0
2022-10-30T22:20:08.382Z,0
2022-10-30T22:26:28.367Z,0
2022-10-30T22:32:51.389Z,0
2022-10-30T22:39:11.348Z,0
2022-10-30T22:45:34.331Z,0
2022-10-30T22:51:54.434Z,0
2022-10-30T23:04:37.371Z,0
2022-10-30T23:11:00.339Z,0
2022-10-30T23:17:20.443Z,0
2022-10-30T23:23:43.333Z,0
2022-10-30T23:30:03.346Z,0
2022-10-30T23:36:26.382Z,0
2022-10-30T23:42:46.336Z,0
2022-10-30T23:49:09.389Z,0
2022-10-30T23:55:29.341Z,0
